SVA942 EBBR-OEJN
Flight info
| Callsign | SVA942 |
|---|---|
| Flight time | 5h 22m |
| Altitude | 35000 |
| Route | ROUSY DCT GTQ DCT POGOL DCT LASAT DCT DEVDI DCT RIPUS DCT RESIA DCT CHI DCT BUSER DCT RIVAM DCT EKKEF DCT DOLON DCT KAPPO DCT LATAN UL869 KRK DCT TRL DCT PLH/N0469F370 UL604 SALUN N705 MMA L613 KIVIL N710 TAKRI P751 LXR M999 MUVOL |
| Aircraft | MD11/H-SDE1E2E3FGHIJ2J3J4J5M1RWXY/LB1D1 |
Departure
| Time | 2026-05-05 08:21 |
|---|---|
| Airport | Brussels Airport (EBBR) |
Arrival
| Time | 2026-05-05 13:43 |
|---|---|
| Airport | King Abdulaziz International Airport (OEJN) |
| Time | Latitude | Longitude | Altitude | Speed | Heading |
|---|---|---|---|---|---|
| 2026-05-05 07:36 | 50.90431 | 4.49119 | 124 ft | 0 kts | 301° |
| 2026-05-05 07:47 | 50.90430 | 4.49119 | 128 ft | 0 kts | 301° |
| 2026-05-05 07:57 | 50.90430 | 4.49120 | 128 ft | 0 kts | 301° |
| 2026-05-05 08:01 | 50.90425 | 4.49133 | 123 ft | 2 kts | 301° |
| 2026-05-05 08:02 | 50.90416 | 4.49155 | 124 ft | 2 kts | 305° |
| 2026-05-05 08:02 | 50.90406 | 4.49176 | 124 ft | 2 kts | 312° |
| 2026-05-05 08:02 | 50.90395 | 4.49194 | 125 ft | 2 kts | 323° |
| 2026-05-05 08:02 | 50.90380 | 4.49208 | 123 ft | 2 kts | 13° |
| 2026-05-05 08:03 | 50.90367 | 4.49197 | 129 ft | 1 kts | 60° |
| 2026-05-05 08:03 | 50.90365 | 4.49192 | 124 ft | 0 kts | 63° |
| 2026-05-05 08:08 | 50.90368 | 4.49202 | 128 ft | 2 kts | 65° |
| 2026-05-05 08:08 | 50.90380 | 4.49243 | 129 ft | 6 kts | 65° |
| 2026-05-05 08:09 | 50.90389 | 4.49297 | 126 ft | 1 kts | 96° |
| 2026-05-05 08:09 | 50.90384 | 4.49310 | 127 ft | 2 kts | 115° |
| 2026-05-05 08:09 | 50.90373 | 4.49329 | 127 ft | 3 kts | 134° |
| 2026-05-05 08:09 | 50.90353 | 4.49356 | 127 ft | 5 kts | 141° |
| 2026-05-05 08:10 | 50.90316 | 4.49395 | 131 ft | 6 kts | 155° |
| 2026-05-05 08:10 | 50.90291 | 4.49400 | 127 ft | 4 kts | 176° |
| 2026-05-05 08:10 | 50.90261 | 4.49394 | 131 ft | 5 kts | 190° |
| 2026-05-05 08:10 | 50.90222 | 4.49379 | 133 ft | 7 kts | 194° |
| 2026-05-05 08:11 | 50.90169 | 4.49358 | 137 ft | 9 kts | 194° |
| 2026-05-05 08:11 | 50.90104 | 4.49332 | 138 ft | 11 kts | 194° |
| 2026-05-05 08:11 | 50.90016 | 4.49295 | 139 ft | 14 kts | 195° |
| 2026-05-05 08:11 | 50.89920 | 4.49257 | 144 ft | 14 kts | 193° |
| 2026-05-05 08:12 | 50.89832 | 4.49221 | 149 ft | 12 kts | 195° |
| 2026-05-05 08:12 | 50.89753 | 4.49188 | 153 ft | 12 kts | 194° |
| 2026-05-05 08:12 | 50.89672 | 4.49156 | 158 ft | 11 kts | 193° |
| 2026-05-05 08:12 | 50.89609 | 4.49175 | 162 ft | 9 kts | 163° |
| 2026-05-05 08:13 | 50.89549 | 4.49183 | 165 ft | 9 kts | 186° |
| 2026-05-05 08:13 | 50.89490 | 4.49158 | 168 ft | 10 kts | 196° |
| 2026-05-05 08:13 | 50.89415 | 4.49127 | 171 ft | 11 kts | 194° |
| 2026-05-05 08:13 | 50.89326 | 4.49091 | 174 ft | 15 kts | 194° |
| 2026-05-05 08:14 | 50.89217 | 4.49047 | 181 ft | 16 kts | 194° |
| 2026-05-05 08:14 | 50.89097 | 4.48997 | 185 ft | 20 kts | 194° |
| 2026-05-05 08:14 | 50.88950 | 4.48937 | 204 ft | 23 kts | 195° |
| 2026-05-05 08:14 | 50.88825 | 4.48887 | 208 ft | 14 kts | 194° |
| 2026-05-05 08:15 | 50.88776 | 4.48885 | 207 ft | 6 kts | 162° |
| 2026-05-05 08:15 | 50.88745 | 4.48958 | 210 ft | 11 kts | 106° |
| 2026-05-05 08:15 | 50.88739 | 4.48991 | 210 ft | 0 kts | 104° |
| 2026-05-05 08:16 | 50.88735 | 4.49015 | 209 ft | 4 kts | 104° |
| 2026-05-05 08:16 | 50.88724 | 4.49084 | 208 ft | 9 kts | 104° |
| 2026-05-05 08:16 | 50.88728 | 4.49135 | 208 ft | 3 kts | 60° |
| 2026-05-05 08:17 | 50.88761 | 4.49168 | 209 ft | 8 kts | 21° |
| 2026-05-05 08:17 | 50.88781 | 4.49178 | 201 ft | 2 kts | 15° |
| 2026-05-05 08:17 | 50.88786 | 4.49180 | 205 ft | 2 kts | 15° |
| 2026-05-05 08:17 | 50.88804 | 4.49188 | 200 ft | 3 kts | 15° |
| 2026-05-05 08:18 | 50.88812 | 4.49192 | 198 ft | 0 kts | 15° |
| 2026-05-05 08:18 | 50.88817 | 4.49194 | 200 ft | 2 kts | 15° |
| 2026-05-05 08:18 | 50.88818 | 4.49194 | 200 ft | 0 kts | 15° |
| 2026-05-05 08:20 | 50.88868 | 4.49215 | 198 ft | 32 kts | 14° |
| 2026-05-05 08:20 | 50.89363 | 4.49414 | 178 ft | 113 kts | 14° |
| 2026-05-05 08:20 | 50.90324 | 4.49798 | 154 ft | 170 kts | 13° |
| 2026-05-05 08:21 | 50.91500 | 4.50240 | 839 ft | 168 kts | 14° |
| 2026-05-05 08:21 | 50.92524 | 4.50892 | 1918 ft | 157 kts | 35° |
| 2026-05-05 08:21 | 50.93237 | 4.52303 | 2412 ft | 178 kts | 70° |
| 2026-05-05 08:21 | 50.93184 | 4.54318 | 2946 ft | 190 kts | 110° |
| 2026-05-05 08:22 | 50.92445 | 4.56005 | 3892 ft | 187 kts | 126° |
| 2026-05-05 08:22 | 50.91569 | 4.57617 | 4521 ft | 206 kts | 127° |
| 2026-05-05 08:22 | 50.90549 | 4.59486 | 4692 ft | 239 kts | 129° |
| 2026-05-05 08:22 | 50.89326 | 4.61283 | 4809 ft | 266 kts | 144° |
| 2026-05-05 08:23 | 50.87482 | 4.62371 | 5306 ft | 279 kts | 167° |
| 2026-05-05 08:23 | 50.85529 | 4.62781 | 6198 ft | 282 kts | 172° |
| 2026-05-05 08:23 | 50.83562 | 4.63061 | 7071 ft | 287 kts | 173° |
| 2026-05-05 08:23 | 50.81551 | 4.63321 | 7950 ft | 291 kts | 173° |
| 2026-05-05 08:24 | 50.79531 | 4.63579 | 8820 ft | 294 kts | 173° |
| 2026-05-05 08:24 | 50.77480 | 4.63850 | 9671 ft | 297 kts | 173° |
| 2026-05-05 08:24 | 50.75388 | 4.64236 | 10193 ft | 312 kts | 167° |
| 2026-05-05 08:24 | 50.73264 | 4.65332 | 10322 ft | 335 kts | 151° |
| 2026-05-05 08:25 | 50.71331 | 4.67553 | 10539 ft | 354 kts | 130° |
| 2026-05-05 08:25 | 50.69968 | 4.70780 | 11281 ft | 355 kts | 113° |
| 2026-05-05 08:25 | 50.69127 | 4.74375 | 12015 ft | 358 kts | 105° |
| 2026-05-05 08:25 | 50.68444 | 4.78265 | 12748 ft | 364 kts | 103° |
| 2026-05-05 08:26 | 50.67804 | 4.82145 | 13525 ft | 367 kts | 103° |
| 2026-05-05 08:26 | 50.67144 | 4.86056 | 14214 ft | 371 kts | 104° |
| 2026-05-05 08:26 | 50.66376 | 4.89847 | 14796 ft | 375 kts | 114° |
| 2026-05-05 08:26 | 50.64980 | 4.93329 | 15441 ft | 379 kts | 128° |
| 2026-05-05 08:27 | 50.63219 | 4.96377 | 16040 ft | 382 kts | 134° |
| 2026-05-05 08:27 | 50.61303 | 4.99306 | 16682 ft | 385 kts | 136° |
| 2026-05-05 08:27 | 50.59345 | 5.02216 | 17295 ft | 388 kts | 136° |
| 2026-05-05 08:27 | 50.57370 | 5.05169 | 17915 ft | 391 kts | 136° |
| 2026-05-05 08:28 | 50.55413 | 5.08131 | 18450 ft | 395 kts | 136° |
| 2026-05-05 08:28 | 50.53461 | 5.11117 | 18929 ft | 398 kts | 136° |
| 2026-05-05 08:28 | 50.51465 | 5.14191 | 19429 ft | 401 kts | 136° |
| 2026-05-05 08:28 | 50.49463 | 5.17285 | 19895 ft | 404 kts | 136° |
| 2026-05-05 08:29 | 50.47454 | 5.20394 | 20393 ft | 407 kts | 136° |
| 2026-05-05 08:29 | 50.45450 | 5.23495 | 20893 ft | 410 kts | 136° |
| 2026-05-05 08:29 | 50.43388 | 5.26684 | 21376 ft | 413 kts | 136° |
| 2026-05-05 08:30 | 50.39276 | 5.33030 | 22377 ft | 419 kts | 136° |
| 2026-05-05 08:30 | 50.37192 | 5.36237 | 22930 ft | 421 kts | 136° |
| 2026-05-05 08:30 | 50.35093 | 5.39465 | 23426 ft | 424 kts | 136° |
| 2026-05-05 08:30 | 50.32976 | 5.42716 | 23889 ft | 427 kts | 137° |
| 2026-05-05 08:31 | 50.30848 | 5.45977 | 24365 ft | 429 kts | 137° |
| 2026-05-05 08:31 | 50.28714 | 5.49245 | 24832 ft | 432 kts | 137° |
| 2026-05-05 08:31 | 50.26567 | 5.52528 | 25340 ft | 434 kts | 137° |
| 2026-05-05 08:31 | 50.24470 | 5.55729 | 25792 ft | 436 kts | 137° |
| 2026-05-05 08:32 | 50.22307 | 5.59027 | 26256 ft | 439 kts | 138° |
| 2026-05-05 08:32 | 50.20112 | 5.62370 | 26713 ft | 442 kts | 138° |
| 2026-05-05 08:32 | 50.17926 | 5.65696 | 27151 ft | 444 kts | 138° |
| 2026-05-05 08:32 | 50.15682 | 5.69104 | 27590 ft | 447 kts | 138° |
| 2026-05-05 08:33 | 50.13432 | 5.72518 | 28022 ft | 450 kts | 138° |
| 2026-05-05 08:33 | 50.11178 | 5.75932 | 28420 ft | 453 kts | 139° |
| 2026-05-05 08:33 | 50.08824 | 5.79196 | 28794 ft | 454 kts | 146° |
| 2026-05-05 08:33 | 50.06141 | 5.81734 | 29228 ft | 451 kts | 157° |
| 2026-05-05 08:34 | 50.03217 | 5.83557 | 29604 ft | 453 kts | 163° |
| 2026-05-05 08:34 | 50.00253 | 5.85031 | 29967 ft | 454 kts | 165° |
| 2026-05-05 08:34 | 49.97183 | 5.86456 | 30473 ft | 452 kts | 166° |
| 2026-05-05 08:34 | 49.94224 | 5.87848 | 30993 ft | 449 kts | 166° |
| 2026-05-05 08:35 | 49.91219 | 5.89309 | 31563 ft | 445 kts | 166° |
| 2026-05-05 08:35 | 49.88319 | 5.90764 | 32097 ft | 441 kts | 165° |
| 2026-05-05 08:35 | 49.85416 | 5.92247 | 32669 ft | 438 kts | 166° |
| 2026-05-05 08:35 | 49.82559 | 5.93719 | 33190 ft | 434 kts | 166° |
| 2026-05-05 08:36 | 49.79826 | 5.95132 | 33623 ft | 431 kts | 166° |
| 2026-05-05 08:36 | 49.76989 | 5.96597 | 34010 ft | 429 kts | 166° |
| 2026-05-05 08:36 | 49.74287 | 5.97991 | 34343 ft | 426 kts | 166° |
| 2026-05-05 08:36 | 49.71466 | 5.99443 | 34711 ft | 424 kts | 166° |
| 2026-05-05 08:37 | 49.68654 | 6.00886 | 34842 ft | 428 kts | 166° |
| 2026-05-05 08:37 | 49.63269 | 6.03645 | 34879 ft | 431 kts | 166° |
| 2026-05-05 08:38 | 49.57559 | 6.06570 | 34876 ft | 432 kts | 166° |
| 2026-05-05 08:38 | 49.51872 | 6.09476 | 34891 ft | 431 kts | 166° |
| 2026-05-05 08:39 | 49.46337 | 6.12915 | 34865 ft | 438 kts | 153° |
| 2026-05-05 08:39 | 49.41448 | 6.18576 | 34864 ft | 444 kts | 144° |
| 2026-05-05 08:40 | 49.36789 | 6.24688 | 34874 ft | 444 kts | 144° |
| 2026-05-05 08:40 | 49.32053 | 6.30748 | 34871 ft | 443 kts | 146° |
| 2026-05-05 08:41 | 49.27295 | 6.36685 | 34875 ft | 443 kts | 146° |
| 2026-05-05 08:41 | 49.22484 | 6.42632 | 34878 ft | 443 kts | 146° |
| 2026-05-05 08:42 | 49.17675 | 6.48561 | 34878 ft | 443 kts | 146° |
| 2026-05-05 08:42 | 49.12882 | 6.54457 | 34879 ft | 443 kts | 146° |
| 2026-05-05 08:43 | 49.08984 | 6.59243 | 34874 ft | 442 kts | 146° |
| 2026-05-05 08:43 | 49.04189 | 6.65100 | 34878 ft | 442 kts | 147° |
| 2026-05-05 08:44 | 48.99226 | 6.69771 | 34877 ft | 431 kts | 161° |
| 2026-05-05 08:44 | 48.93633 | 6.71705 | 34884 ft | 422 kts | 180° |
| 2026-05-05 08:45 | 48.87875 | 6.71545 | 34892 ft | 421 kts | 185° |
| 2026-05-05 08:45 | 48.82044 | 6.71100 | 34889 ft | 421 kts | 184° |
| 2026-05-05 08:46 | 48.76203 | 6.70776 | 34887 ft | 421 kts | 184° |
| 2026-05-05 08:46 | 48.70362 | 6.70528 | 34888 ft | 420 kts | 183° |
| 2026-05-05 08:47 | 48.64511 | 6.70301 | 34887 ft | 420 kts | 183° |
| 2026-05-05 08:47 | 48.58674 | 6.70076 | 34889 ft | 420 kts | 183° |
| 2026-05-05 08:48 | 48.52901 | 6.69852 | 34889 ft | 420 kts | 183° |
| 2026-05-05 08:48 | 48.47152 | 6.69630 | 34888 ft | 419 kts | 183° |
| 2026-05-05 08:49 | 48.41361 | 6.69406 | 34889 ft | 419 kts | 183° |
| 2026-05-05 08:49 | 48.35539 | 6.69182 | 34887 ft | 419 kts | 183° |
| 2026-05-05 08:50 | 48.29717 | 6.68958 | 34887 ft | 419 kts | 183° |
| 2026-05-05 08:50 | 48.24015 | 6.68945 | 34885 ft | 420 kts | 177° |
| 2026-05-05 08:51 | 48.18427 | 6.70721 | 34880 ft | 425 kts | 162° |
| 2026-05-05 08:51 | 48.13301 | 6.75095 | 34887 ft | 433 kts | 145° |
| 2026-05-05 08:52 | 48.09153 | 6.81674 | 34889 ft | 443 kts | 132° |
| 2026-05-05 08:52 | 48.05612 | 6.89250 | 34886 ft | 445 kts | 129° |
| 2026-05-05 08:53 | 48.02250 | 6.96543 | 34885 ft | 445 kts | 130° |
| 2026-05-05 08:53 | 47.98754 | 7.03899 | 34888 ft | 444 kts | 131° |
| 2026-05-05 08:54 | 47.95132 | 7.11406 | 34883 ft | 443 kts | 131° |
| 2026-05-05 08:54 | 47.91522 | 7.18852 | 34883 ft | 443 kts | 131° |
| 2026-05-05 08:55 | 47.87904 | 7.26290 | 34885 ft | 443 kts | 131° |
| 2026-05-05 08:55 | 47.84283 | 7.33718 | 34888 ft | 443 kts | 131° |
| 2026-05-05 08:56 | 47.80692 | 7.41065 | 34889 ft | 443 kts | 131° |
| 2026-05-05 08:56 | 47.77064 | 7.48469 | 34886 ft | 443 kts | 131° |
| 2026-05-05 08:57 | 47.73429 | 7.55845 | 34887 ft | 443 kts | 131° |
| 2026-05-05 08:57 | 47.69763 | 7.63204 | 34884 ft | 443 kts | 131° |
| 2026-05-05 08:58 | 47.66155 | 7.70457 | 34884 ft | 443 kts | 131° |
| 2026-05-05 08:58 | 47.62495 | 7.77819 | 34886 ft | 443 kts | 131° |
| 2026-05-05 08:59 | 47.58870 | 7.85103 | 34891 ft | 444 kts | 131° |
| 2026-05-05 08:59 | 47.55208 | 7.92434 | 34890 ft | 444 kts | 131° |
| 2026-05-05 09:00 | 47.51496 | 7.99848 | 34894 ft | 444 kts | 131° |
| 2026-05-05 09:00 | 47.47968 | 8.06876 | 34892 ft | 445 kts | 131° |
| 2026-05-05 09:01 | 47.44515 | 8.13737 | 34898 ft | 446 kts | 131° |
| 2026-05-05 09:01 | 47.40795 | 8.21113 | 34898 ft | 447 kts | 131° |
| 2026-05-05 09:02 | 47.37080 | 8.28455 | 34898 ft | 447 kts | 131° |
| 2026-05-05 09:02 | 47.33591 | 8.35331 | 34917 ft | 448 kts | 131° |
| 2026-05-05 09:03 | 47.29872 | 8.42643 | 34896 ft | 448 kts | 131° |
| 2026-05-05 09:03 | 47.26131 | 8.49989 | 34906 ft | 449 kts | 131° |
| 2026-05-05 09:04 | 47.22420 | 8.57405 | 34903 ft | 450 kts | 130° |
| 2026-05-05 09:04 | 47.18749 | 8.64837 | 34899 ft | 450 kts | 130° |
| 2026-05-05 09:05 | 47.15066 | 8.72302 | 34890 ft | 450 kts | 130° |
| 2026-05-05 09:05 | 47.11388 | 8.79735 | 34889 ft | 450 kts | 130° |
| 2026-05-05 09:06 | 47.07698 | 8.87174 | 34891 ft | 451 kts | 130° |
| 2026-05-05 09:06 | 47.04040 | 8.94525 | 34890 ft | 450 kts | 130° |
| 2026-05-05 09:07 | 47.00325 | 9.01967 | 34881 ft | 450 kts | 131° |
| 2026-05-05 09:07 | 46.96612 | 9.09371 | 34905 ft | 449 kts | 130° |
| 2026-05-05 09:08 | 46.92939 | 9.16707 | 34904 ft | 450 kts | 131° |
| 2026-05-05 09:08 | 46.89234 | 9.24080 | 34909 ft | 450 kts | 131° |
| 2026-05-05 09:09 | 46.85539 | 9.31403 | 34906 ft | 450 kts | 131° |
| 2026-05-05 09:09 | 46.81811 | 9.38769 | 34923 ft | 451 kts | 131° |
| 2026-05-05 09:10 | 46.78045 | 9.46201 | 34934 ft | 452 kts | 131° |
| 2026-05-05 09:10 | 46.74286 | 9.53526 | 34939 ft | 452 kts | 131° |
| 2026-05-05 09:11 | 46.70563 | 9.60769 | 34964 ft | 453 kts | 131° |
| 2026-05-05 09:11 | 46.66847 | 9.68025 | 34965 ft | 454 kts | 131° |
| 2026-05-05 09:12 | 46.63103 | 9.75327 | 34998 ft | 455 kts | 131° |
| 2026-05-05 09:12 | 46.59432 | 9.82482 | 34991 ft | 456 kts | 131° |
| 2026-05-05 09:13 | 46.55668 | 9.89781 | 34998 ft | 464 kts | 131° |
| 2026-05-05 09:13 | 46.51685 | 9.97269 | 34995 ft | 468 kts | 134° |
| 2026-05-05 09:14 | 46.47612 | 10.04155 | 34991 ft | 468 kts | 135° |
| 2026-05-05 09:14 | 46.43322 | 10.11233 | 34993 ft | 469 kts | 135° |
| 2026-05-05 09:15 | 46.39034 | 10.18322 | 34996 ft | 469 kts | 135° |
| 2026-05-05 09:15 | 46.34704 | 10.25499 | 35007 ft | 470 kts | 135° |
| 2026-05-05 09:16 | 46.30555 | 10.32364 | 35009 ft | 471 kts | 135° |
| 2026-05-05 09:16 | 46.26248 | 10.39476 | 35015 ft | 471 kts | 135° |
| 2026-05-05 09:17 | 46.22011 | 10.46458 | 35014 ft | 472 kts | 135° |
| 2026-05-05 09:17 | 46.17687 | 10.53565 | 35032 ft | 472 kts | 135° |
| 2026-05-05 09:18 | 46.13337 | 10.60693 | 35032 ft | 472 kts | 135° |
| 2026-05-05 09:18 | 46.09057 | 10.67686 | 35031 ft | 472 kts | 135° |
| 2026-05-05 09:19 | 46.04698 | 10.74792 | 35034 ft | 473 kts | 135° |
| 2026-05-05 09:19 | 46.00333 | 10.81887 | 35029 ft | 473 kts | 136° |
| 2026-05-05 09:20 | 45.95954 | 10.88953 | 35025 ft | 473 kts | 136° |
| 2026-05-05 09:20 | 45.91562 | 10.95994 | 35027 ft | 474 kts | 136° |
| 2026-05-05 09:21 | 45.87254 | 11.02923 | 35024 ft | 474 kts | 136° |
| 2026-05-05 09:21 | 45.82985 | 11.09790 | 35026 ft | 474 kts | 136° |
| 2026-05-05 09:22 | 45.78632 | 11.16780 | 35027 ft | 474 kts | 136° |
| 2026-05-05 09:22 | 45.74401 | 11.23552 | 35027 ft | 474 kts | 136° |
| 2026-05-05 09:23 | 45.70000 | 11.30585 | 35022 ft | 474 kts | 136° |
| 2026-05-05 09:23 | 45.65583 | 11.37620 | 35026 ft | 475 kts | 136° |
| 2026-05-05 09:24 | 45.61352 | 11.44342 | 35020 ft | 475 kts | 136° |
| 2026-05-05 09:24 | 45.57022 | 11.51206 | 35017 ft | 476 kts | 136° |
| 2026-05-05 09:25 | 45.52607 | 11.58186 | 35018 ft | 477 kts | 136° |
| 2026-05-05 09:25 | 45.48260 | 11.65041 | 35020 ft | 478 kts | 136° |
| 2026-05-05 09:26 | 45.43788 | 11.72075 | 35026 ft | 478 kts | 136° |
| 2026-05-05 09:26 | 45.39516 | 11.78731 | 35016 ft | 479 kts | 136° |
| 2026-05-05 09:27 | 45.35022 | 11.85712 | 35018 ft | 479 kts | 136° |
| 2026-05-05 09:27 | 45.30535 | 11.92706 | 35021 ft | 479 kts | 136° |
| 2026-05-05 09:28 | 45.26998 | 11.98213 | 35020 ft | 480 kts | 136° |
| 2026-05-05 09:28 | 45.21725 | 12.06341 | 35014 ft | 479 kts | 137° |
| 2026-05-05 09:29 | 45.17875 | 12.12025 | 35010 ft | 479 kts | 137° |
| 2026-05-05 09:29 | 45.13234 | 12.18800 | 35011 ft | 480 kts | 137° |
| 2026-05-05 09:30 | 45.08586 | 12.25587 | 35016 ft | 480 kts | 137° |
| 2026-05-05 09:30 | 45.03935 | 12.32374 | 35014 ft | 480 kts | 137° |
| 2026-05-05 09:31 | 44.99282 | 12.39153 | 35020 ft | 481 kts | 137° |
| 2026-05-05 09:31 | 44.94625 | 12.45922 | 35021 ft | 481 kts | 137° |
| 2026-05-05 09:32 | 44.89949 | 12.52698 | 35019 ft | 482 kts | 138° |
| 2026-05-05 09:32 | 44.85351 | 12.59350 | 35019 ft | 482 kts | 138° |
| 2026-05-05 09:33 | 44.80667 | 12.66105 | 35015 ft | 482 kts | 138° |
| 2026-05-05 09:33 | 44.75966 | 12.72868 | 35020 ft | 483 kts | 138° |
| 2026-05-05 09:34 | 44.71494 | 12.79287 | 35019 ft | 483 kts | 138° |
| 2026-05-05 09:34 | 44.66725 | 12.86115 | 35018 ft | 484 kts | 138° |
| 2026-05-05 09:35 | 44.62124 | 12.92648 | 35015 ft | 484 kts | 138° |
| 2026-05-05 09:35 | 44.55182 | 13.02474 | 35030 ft | 485 kts | 138° |
| 2026-05-05 09:36 | 44.50725 | 13.08795 | 35028 ft | 485 kts | 138° |
| 2026-05-05 09:36 | 44.46134 | 13.15301 | 35023 ft | 486 kts | 138° |
| 2026-05-05 09:37 | 44.41496 | 13.21858 | 35022 ft | 487 kts | 138° |
| 2026-05-05 09:37 | 44.36729 | 13.28577 | 35023 ft | 487 kts | 138° |
| 2026-05-05 09:38 | 44.31946 | 13.35301 | 35025 ft | 488 kts | 138° |
| 2026-05-05 09:38 | 44.27568 | 13.41443 | 35027 ft | 488 kts | 138° |
| 2026-05-05 09:39 | 44.22856 | 13.48038 | 35028 ft | 489 kts | 138° |
| 2026-05-05 09:39 | 44.18048 | 13.54752 | 35027 ft | 489 kts | 138° |
| 2026-05-05 09:40 | 44.13233 | 13.61457 | 35027 ft | 490 kts | 138° |
| 2026-05-05 09:40 | 44.08558 | 13.67909 | 35026 ft | 491 kts | 138° |
| 2026-05-05 09:41 | 44.03688 | 13.74570 | 35026 ft | 491 kts | 138° |
| 2026-05-05 09:41 | 43.99023 | 13.80963 | 35028 ft | 492 kts | 138° |
| 2026-05-05 09:42 | 43.94154 | 13.87635 | 35029 ft | 492 kts | 138° |
| 2026-05-05 09:42 | 43.89287 | 13.94291 | 35030 ft | 492 kts | 138° |
| 2026-05-05 09:43 | 43.84400 | 14.00957 | 35029 ft | 493 kts | 138° |
| 2026-05-05 09:43 | 43.79743 | 14.07294 | 35028 ft | 493 kts | 138° |
| 2026-05-05 09:44 | 43.74927 | 14.13831 | 35025 ft | 494 kts | 139° |
| 2026-05-05 09:44 | 43.70015 | 14.20484 | 35032 ft | 495 kts | 139° |
| 2026-05-05 09:45 | 43.65188 | 14.27005 | 35026 ft | 495 kts | 139° |
| 2026-05-05 09:45 | 43.60256 | 14.33653 | 35026 ft | 496 kts | 139° |
| 2026-05-05 09:46 | 43.55340 | 14.40261 | 35028 ft | 497 kts | 139° |
| 2026-05-05 09:46 | 43.50382 | 14.46895 | 35037 ft | 497 kts | 139° |
| 2026-05-05 09:47 | 43.45395 | 14.53515 | 35032 ft | 498 kts | 139° |
| 2026-05-05 09:47 | 43.40527 | 14.59990 | 35032 ft | 499 kts | 139° |
| 2026-05-05 09:48 | 43.35615 | 14.66529 | 35028 ft | 500 kts | 139° |
| 2026-05-05 09:48 | 43.30615 | 14.73173 | 35043 ft | 501 kts | 140° |
| 2026-05-05 09:49 | 43.25628 | 14.79782 | 35041 ft | 502 kts | 140° |
| 2026-05-05 09:49 | 43.20599 | 14.86433 | 35036 ft | 503 kts | 140° |
| 2026-05-05 09:50 | 43.15586 | 14.93043 | 35028 ft | 503 kts | 140° |
| 2026-05-05 09:50 | 43.11004 | 14.99072 | 35034 ft | 504 kts | 140° |
| 2026-05-05 09:51 | 43.05921 | 15.05744 | 35040 ft | 506 kts | 141° |
| 2026-05-05 09:51 | 43.00832 | 15.12409 | 35037 ft | 507 kts | 141° |
| 2026-05-05 09:52 | 42.95734 | 15.19069 | 35037 ft | 508 kts | 141° |
| 2026-05-05 09:52 | 42.90751 | 15.25551 | 35040 ft | 508 kts | 142° |
| 2026-05-05 09:53 | 42.85611 | 15.32184 | 35045 ft | 509 kts | 142° |
| 2026-05-05 09:53 | 42.80469 | 15.38830 | 35048 ft | 510 kts | 142° |
| 2026-05-05 09:54 | 42.75530 | 15.45216 | 35048 ft | 511 kts | 141° |
| 2026-05-05 09:54 | 42.70374 | 15.51873 | 35045 ft | 512 kts | 141° |
| 2026-05-05 09:55 | 42.65412 | 15.58265 | 35051 ft | 513 kts | 142° |
| 2026-05-05 09:55 | 42.60351 | 15.64535 | 35049 ft | 513 kts | 143° |
| 2026-05-05 09:56 | 42.55018 | 15.70915 | 35053 ft | 514 kts | 144° |
| 2026-05-05 09:56 | 42.49879 | 15.77042 | 35056 ft | 515 kts | 144° |
| 2026-05-05 09:57 | 42.44589 | 15.83363 | 35050 ft | 517 kts | 143° |
| 2026-05-05 09:57 | 42.39190 | 15.89809 | 35047 ft | 518 kts | 143° |
| 2026-05-05 09:58 | 42.33797 | 15.96236 | 35050 ft | 520 kts | 143° |
| 2026-05-05 09:58 | 42.28404 | 16.02647 | 35055 ft | 521 kts | 143° |
| 2026-05-05 09:59 | 42.23358 | 16.08629 | 35054 ft | 522 kts | 143° |
| 2026-05-05 09:59 | 42.18066 | 16.14888 | 35055 ft | 523 kts | 143° |
| 2026-05-05 10:00 | 42.12585 | 16.21357 | 35056 ft | 524 kts | 143° |
| 2026-05-05 10:00 | 42.07346 | 16.27527 | 35060 ft | 525 kts | 143° |
| 2026-05-05 10:01 | 42.01890 | 16.33934 | 35068 ft | 525 kts | 143° |
| 2026-05-05 10:01 | 41.96570 | 16.40125 | 35066 ft | 526 kts | 143° |
| 2026-05-05 10:02 | 41.91044 | 16.46556 | 35069 ft | 527 kts | 143° |
| 2026-05-05 10:02 | 41.85555 | 16.52953 | 35075 ft | 528 kts | 143° |
| 2026-05-05 10:03 | 41.80005 | 16.59414 | 35069 ft | 528 kts | 143° |
| 2026-05-05 10:03 | 41.74459 | 16.65854 | 35077 ft | 528 kts | 143° |
| 2026-05-05 10:04 | 41.68933 | 16.72245 | 35080 ft | 528 kts | 143° |
| 2026-05-05 10:04 | 41.63312 | 16.78549 | 35073 ft | 527 kts | 144° |
| 2026-05-05 10:05 | 41.57766 | 16.84673 | 35075 ft | 527 kts | 144° |
| 2026-05-05 10:05 | 41.52262 | 16.90748 | 35079 ft | 527 kts | 144° |
| 2026-05-05 10:06 | 41.46770 | 16.96813 | 35079 ft | 527 kts | 144° |
| 2026-05-05 10:06 | 41.41130 | 17.03031 | 35076 ft | 527 kts | 144° |
| 2026-05-05 10:07 | 41.35459 | 17.09269 | 35071 ft | 528 kts | 144° |
| 2026-05-05 10:07 | 41.29803 | 17.15474 | 35071 ft | 528 kts | 144° |
| 2026-05-05 10:08 | 41.24210 | 17.21597 | 35075 ft | 528 kts | 144° |
| 2026-05-05 10:08 | 41.18785 | 17.27522 | 35075 ft | 528 kts | 144° |
| 2026-05-05 10:09 | 41.13108 | 17.33708 | 35079 ft | 528 kts | 144° |
| 2026-05-05 10:09 | 41.07424 | 17.39887 | 35077 ft | 528 kts | 144° |
| 2026-05-05 10:10 | 41.01727 | 17.46045 | 35080 ft | 528 kts | 144° |
| 2026-05-05 10:10 | 40.96031 | 17.52172 | 35080 ft | 528 kts | 144° |
| 2026-05-05 10:11 | 40.90464 | 17.58171 | 35084 ft | 528 kts | 143° |
| 2026-05-05 10:11 | 40.85237 | 17.64530 | 35089 ft | 530 kts | 135° |
| 2026-05-05 10:12 | 40.81229 | 17.70444 | 35093 ft | 530 kts | 132° |
| 2026-05-05 10:12 | 40.76627 | 17.77491 | 35098 ft | 530 kts | 132° |
| 2026-05-05 10:13 | 40.71790 | 17.84765 | 35101 ft | 529 kts | 133° |
| 2026-05-05 10:13 | 40.66940 | 17.91935 | 35103 ft | 528 kts | 133° |
| 2026-05-05 10:14 | 40.62037 | 17.98915 | 35100 ft | 526 kts | 140° |
| 2026-05-05 10:14 | 40.56180 | 18.04428 | 35104 ft | 520 kts | 153° |
| 2026-05-05 10:15 | 40.50927 | 18.08220 | 35101 ft | 519 kts | 155° |
| 2026-05-05 10:15 | 40.44965 | 18.12544 | 35101 ft | 521 kts | 153° |
| 2026-05-05 10:16 | 40.38698 | 18.17313 | 35101 ft | 521 kts | 152° |
| 2026-05-05 10:16 | 40.32370 | 18.22223 | 35103 ft | 522 kts | 152° |
| 2026-05-05 10:17 | 40.26201 | 18.27006 | 35104 ft | 522 kts | 152° |
| 2026-05-05 10:17 | 40.19981 | 18.31804 | 35102 ft | 522 kts | 152° |
| 2026-05-05 10:18 | 40.14156 | 18.36285 | 35119 ft | 522 kts | 152° |
| 2026-05-05 10:18 | 40.07885 | 18.41098 | 35124 ft | 522 kts | 152° |
| 2026-05-05 10:19 | 40.01616 | 18.45898 | 35112 ft | 523 kts | 152° |
| 2026-05-05 10:19 | 39.95501 | 18.50572 | 35119 ft | 523 kts | 152° |
| 2026-05-05 10:20 | 39.89270 | 18.55321 | 35122 ft | 523 kts | 153° |
| 2026-05-05 10:20 | 39.82988 | 18.60074 | 35122 ft | 523 kts | 153° |
| 2026-05-05 10:21 | 39.76699 | 18.64835 | 35123 ft | 523 kts | 152° |
| 2026-05-05 10:21 | 39.70420 | 18.69592 | 35119 ft | 523 kts | 152° |
| 2026-05-05 10:22 | 39.64135 | 18.74346 | 35139 ft | 522 kts | 152° |
| 2026-05-05 10:22 | 39.57848 | 18.79090 | 35138 ft | 523 kts | 152° |
| 2026-05-05 10:23 | 39.51562 | 18.83823 | 35138 ft | 523 kts | 152° |
| 2026-05-05 10:23 | 39.45273 | 18.88548 | 35141 ft | 523 kts | 152° |
| 2026-05-05 10:24 | 39.39105 | 18.93530 | 35142 ft | 525 kts | 144° |
| 2026-05-05 10:24 | 39.34176 | 18.99946 | 35140 ft | 527 kts | 126° |
| 2026-05-05 10:25 | 39.30708 | 19.08229 | 35131 ft | 525 kts | 108° |
| 2026-05-05 10:25 | 39.29252 | 19.17388 | 35141 ft | 519 kts | 89° |
| 2026-05-05 10:26 | 39.29926 | 19.26539 | 35138 ft | 509 kts | 71° |
| 2026-05-05 10:26 | 39.32515 | 19.34907 | 35131 ft | 500 kts | 58° |
| 2026-05-05 10:27 | 39.35112 | 19.42790 | 35134 ft | 506 kts | 67° |
| 2026-05-05 10:27 | 39.36804 | 19.51208 | 35134 ft | 511 kts | 74° |
| 2026-05-05 10:28 | 39.38064 | 19.60174 | 35134 ft | 512 kts | 76° |
| 2026-05-05 10:28 | 39.39213 | 19.69091 | 35130 ft | 512 kts | 76° |
| 2026-05-05 10:29 | 39.40419 | 19.78173 | 35133 ft | 512 kts | 75° |
| 2026-05-05 10:29 | 39.41653 | 19.87170 | 35133 ft | 512 kts | 75° |
| 2026-05-05 10:30 | 39.42648 | 19.96302 | 35128 ft | 516 kts | 84° |
| 2026-05-05 10:30 | 39.41946 | 20.05586 | 35129 ft | 525 kts | 102° |
| 2026-05-05 10:31 | 39.39195 | 20.14351 | 35128 ft | 530 kts | 120° |
| 2026-05-05 10:31 | 39.34644 | 20.21762 | 35136 ft | 530 kts | 138° |
| 2026-05-05 10:32 | 39.28662 | 20.27301 | 35137 ft | 527 kts | 152° |
| 2026-05-05 10:32 | 39.22617 | 20.32191 | 35137 ft | 529 kts | 146° |
| 2026-05-05 10:33 | 39.16895 | 20.38074 | 35145 ft | 530 kts | 140° |
| 2026-05-05 10:33 | 39.11619 | 20.44175 | 35145 ft | 531 kts | 138° |
| 2026-05-05 10:34 | 39.06318 | 20.50384 | 35153 ft | 531 kts | 138° |
| 2026-05-05 10:34 | 39.00843 | 20.56715 | 35157 ft | 531 kts | 139° |
| 2026-05-05 10:35 | 38.95333 | 20.63029 | 35158 ft | 531 kts | 139° |
| 2026-05-05 10:35 | 38.89799 | 20.69348 | 35158 ft | 531 kts | 139° |
| 2026-05-05 10:36 | 38.84267 | 20.75656 | 35158 ft | 531 kts | 139° |
| 2026-05-05 10:36 | 38.78822 | 20.81855 | 35157 ft | 531 kts | 139° |
| 2026-05-05 10:37 | 38.73216 | 20.88219 | 35152 ft | 531 kts | 139° |
| 2026-05-05 10:37 | 38.67660 | 20.94475 | 35150 ft | 531 kts | 139° |
| 2026-05-05 10:38 | 38.62439 | 21.00359 | 35148 ft | 531 kts | 139° |
| 2026-05-05 10:38 | 38.56956 | 21.06543 | 35144 ft | 531 kts | 139° |
| 2026-05-05 10:39 | 38.51244 | 21.12980 | 35144 ft | 532 kts | 139° |
| 2026-05-05 10:39 | 38.46036 | 21.18832 | 35144 ft | 532 kts | 139° |
| 2026-05-05 10:40 | 38.40478 | 21.25064 | 35149 ft | 532 kts | 139° |
| 2026-05-05 10:40 | 38.34927 | 21.31275 | 35153 ft | 532 kts | 139° |
| 2026-05-05 10:41 | 38.29363 | 21.37490 | 35155 ft | 532 kts | 139° |
| 2026-05-05 10:41 | 38.23805 | 21.43682 | 35160 ft | 532 kts | 139° |
| 2026-05-05 10:42 | 38.15448 | 21.52970 | 35156 ft | 532 kts | 139° |
| 2026-05-05 10:43 | 38.09910 | 21.59096 | 35153 ft | 531 kts | 139° |
| 2026-05-05 10:43 | 38.04319 | 21.65244 | 35150 ft | 531 kts | 139° |
| 2026-05-05 10:44 | 37.98738 | 21.71387 | 35145 ft | 531 kts | 139° |
| 2026-05-05 10:44 | 37.93152 | 21.77538 | 35138 ft | 531 kts | 139° |
| 2026-05-05 10:45 | 37.87576 | 21.83667 | 35138 ft | 531 kts | 140° |
| 2026-05-05 10:45 | 37.81988 | 21.89793 | 35136 ft | 532 kts | 139° |
| 2026-05-05 10:46 | 37.76608 | 21.95682 | 35132 ft | 532 kts | 139° |
| 2026-05-05 10:46 | 37.71125 | 22.01677 | 35133 ft | 532 kts | 139° |
| 2026-05-05 10:47 | 37.65532 | 22.07777 | 35129 ft | 532 kts | 139° |
| 2026-05-05 10:47 | 37.59928 | 22.13873 | 35123 ft | 532 kts | 139° |
| 2026-05-05 10:48 | 37.54342 | 22.19936 | 35123 ft | 532 kts | 139° |
| 2026-05-05 10:48 | 37.48703 | 22.26043 | 35119 ft | 532 kts | 140° |
| 2026-05-05 10:49 | 37.42939 | 22.31883 | 35115 ft | 531 kts | 148° |
| 2026-05-05 10:49 | 37.36480 | 22.36365 | 35119 ft | 530 kts | 156° |
| 2026-05-05 10:50 | 37.29959 | 22.40284 | 35118 ft | 530 kts | 156° |
| 2026-05-05 10:50 | 37.23585 | 22.44199 | 35120 ft | 530 kts | 155° |
| 2026-05-05 10:51 | 37.17001 | 22.48358 | 35118 ft | 530 kts | 155° |
| 2026-05-05 10:51 | 37.10423 | 22.52542 | 35122 ft | 530 kts | 155° |
| 2026-05-05 10:52 | 37.03844 | 22.56713 | 35126 ft | 530 kts | 155° |
| 2026-05-05 10:52 | 36.97307 | 22.60842 | 35125 ft | 530 kts | 155° |
| 2026-05-05 10:53 | 36.90686 | 22.65018 | 35126 ft | 530 kts | 155° |
| 2026-05-05 10:53 | 36.84093 | 22.69165 | 35128 ft | 530 kts | 155° |
| 2026-05-05 10:54 | 36.77693 | 22.73184 | 35128 ft | 530 kts | 155° |
| 2026-05-05 10:54 | 36.71147 | 22.77286 | 35127 ft | 530 kts | 155° |
| 2026-05-05 10:55 | 36.64553 | 22.81395 | 35130 ft | 530 kts | 155° |
| 2026-05-05 10:55 | 36.58156 | 22.85374 | 35132 ft | 530 kts | 155° |
| 2026-05-05 10:56 | 36.51564 | 22.89478 | 35131 ft | 530 kts | 155° |
| 2026-05-05 10:56 | 36.44978 | 22.93575 | 35134 ft | 529 kts | 155° |
| 2026-05-05 10:57 | 36.38392 | 22.97665 | 35137 ft | 529 kts | 155° |
| 2026-05-05 10:57 | 36.31810 | 23.01744 | 35138 ft | 529 kts | 155° |
| 2026-05-05 10:58 | 36.25205 | 23.05828 | 35137 ft | 529 kts | 155° |
| 2026-05-05 10:58 | 36.18620 | 23.09892 | 35138 ft | 530 kts | 155° |
| 2026-05-05 10:59 | 36.12050 | 23.13939 | 35139 ft | 530 kts | 155° |
| 2026-05-05 10:59 | 36.06876 | 23.17129 | 35134 ft | 530 kts | 155° |
| 2026-05-05 11:00 | 35.99550 | 23.21649 | 35140 ft | 530 kts | 155° |
| 2026-05-05 11:00 | 35.92918 | 23.25688 | 35141 ft | 530 kts | 156° |
| 2026-05-05 11:01 | 35.86308 | 23.29701 | 35145 ft | 530 kts | 156° |
| 2026-05-05 11:01 | 35.79696 | 23.33727 | 35142 ft | 530 kts | 156° |
| 2026-05-05 11:02 | 35.73076 | 23.37761 | 35137 ft | 530 kts | 156° |
| 2026-05-05 11:02 | 35.67536 | 23.41132 | 35132 ft | 530 kts | 156° |
| 2026-05-05 11:03 | 35.60964 | 23.45123 | 35138 ft | 530 kts | 156° |
| 2026-05-05 11:03 | 35.54342 | 23.49136 | 35147 ft | 531 kts | 156° |
| 2026-05-05 11:04 | 35.47717 | 23.53144 | 35146 ft | 531 kts | 156° |
| 2026-05-05 11:04 | 35.41078 | 23.57153 | 35146 ft | 531 kts | 156° |
| 2026-05-05 11:05 | 35.34447 | 23.61150 | 35137 ft | 531 kts | 156° |
| 2026-05-05 11:05 | 35.27818 | 23.65138 | 35140 ft | 531 kts | 156° |
| 2026-05-05 11:06 | 35.21205 | 23.69153 | 35142 ft | 531 kts | 155° |
| 2026-05-05 11:06 | 35.14650 | 23.73305 | 35144 ft | 532 kts | 155° |
| 2026-05-05 11:07 | 35.08081 | 23.77518 | 35143 ft | 531 kts | 155° |
| 2026-05-05 11:07 | 35.01537 | 23.81702 | 35136 ft | 531 kts | 155° |
| 2026-05-05 11:08 | 34.94985 | 23.85872 | 35142 ft | 531 kts | 155° |
| 2026-05-05 11:08 | 34.88429 | 23.90034 | 35137 ft | 531 kts | 155° |
| 2026-05-05 11:09 | 34.81876 | 23.94187 | 35136 ft | 531 kts | 155° |
| 2026-05-05 11:09 | 34.75323 | 23.98333 | 35141 ft | 531 kts | 155° |
| 2026-05-05 11:10 | 34.68748 | 24.02485 | 35139 ft | 531 kts | 155° |
| 2026-05-05 11:10 | 34.62192 | 24.06618 | 35137 ft | 532 kts | 155° |
| 2026-05-05 11:11 | 34.55669 | 24.10724 | 35139 ft | 532 kts | 155° |
| 2026-05-05 11:11 | 34.49093 | 24.14852 | 35141 ft | 532 kts | 155° |
| 2026-05-05 11:12 | 34.42518 | 24.18957 | 35140 ft | 532 kts | 155° |
| 2026-05-05 11:12 | 34.35943 | 24.23062 | 35142 ft | 532 kts | 155° |
| 2026-05-05 11:13 | 34.29368 | 24.27169 | 35143 ft | 532 kts | 155° |
| 2026-05-05 11:13 | 34.22793 | 24.31270 | 35138 ft | 532 kts | 155° |
| 2026-05-05 11:14 | 34.16219 | 24.35364 | 35140 ft | 531 kts | 156° |
| 2026-05-05 11:14 | 34.09648 | 24.39448 | 35138 ft | 531 kts | 156° |
| 2026-05-05 11:15 | 34.03076 | 24.43524 | 35141 ft | 531 kts | 156° |
| 2026-05-05 11:15 | 33.96544 | 24.47703 | 35136 ft | 533 kts | 150° |
| 2026-05-05 11:16 | 33.90753 | 24.53212 | 35142 ft | 537 kts | 139° |
| 2026-05-05 11:16 | 33.85288 | 24.59453 | 35145 ft | 538 kts | 137° |
| 2026-05-05 11:17 | 33.79826 | 24.65603 | 35139 ft | 538 kts | 139° |
| 2026-05-05 11:17 | 33.74286 | 24.71640 | 35137 ft | 538 kts | 140° |
| 2026-05-05 11:18 | 33.68716 | 24.77639 | 35137 ft | 538 kts | 140° |
| 2026-05-05 11:18 | 33.63313 | 24.83451 | 35139 ft | 538 kts | 140° |
| 2026-05-05 11:19 | 33.57741 | 24.89445 | 35146 ft | 538 kts | 140° |
| 2026-05-05 11:19 | 33.52129 | 24.95475 | 35139 ft | 538 kts | 140° |
| 2026-05-05 11:20 | 33.46582 | 25.01424 | 35139 ft | 539 kts | 140° |
| 2026-05-05 11:20 | 33.40993 | 25.07407 | 35138 ft | 539 kts | 140° |
| 2026-05-05 11:21 | 33.35395 | 25.13386 | 35136 ft | 539 kts | 140° |
| 2026-05-05 11:21 | 33.29763 | 25.19365 | 35141 ft | 539 kts | 140° |
| 2026-05-05 11:22 | 33.24391 | 25.25065 | 35144 ft | 539 kts | 140° |
| 2026-05-05 11:22 | 33.18782 | 25.31022 | 35138 ft | 539 kts | 140° |
| 2026-05-05 11:23 | 33.13179 | 25.36966 | 35134 ft | 539 kts | 140° |
| 2026-05-05 11:23 | 33.07619 | 25.42854 | 35131 ft | 539 kts | 141° |
| 2026-05-05 11:24 | 33.02007 | 25.48786 | 35147 ft | 539 kts | 141° |
| 2026-05-05 11:24 | 32.96395 | 25.54708 | 35143 ft | 539 kts | 141° |
| 2026-05-05 11:25 | 32.91097 | 25.60289 | 35140 ft | 539 kts | 141° |
| 2026-05-05 11:25 | 32.85486 | 25.66189 | 35140 ft | 539 kts | 141° |
| 2026-05-05 11:26 | 32.79865 | 25.72090 | 35137 ft | 539 kts | 141° |
| 2026-05-05 11:26 | 32.74245 | 25.77980 | 35141 ft | 539 kts | 141° |
| 2026-05-05 11:27 | 32.68652 | 25.83810 | 35140 ft | 538 kts | 141° |
| 2026-05-05 11:27 | 32.63110 | 25.89572 | 35136 ft | 538 kts | 141° |
| 2026-05-05 11:28 | 32.57482 | 25.95431 | 35141 ft | 538 kts | 141° |
| 2026-05-05 11:28 | 32.51854 | 26.01287 | 35137 ft | 538 kts | 141° |
| 2026-05-05 11:29 | 32.46221 | 26.07140 | 35136 ft | 538 kts | 141° |
| 2026-05-05 11:29 | 32.40587 | 26.12983 | 35139 ft | 538 kts | 142° |
| 2026-05-05 11:30 | 32.34954 | 26.18814 | 35140 ft | 538 kts | 142° |
| 2026-05-05 11:30 | 32.29319 | 26.24637 | 35140 ft | 538 kts | 142° |
| 2026-05-05 11:31 | 32.23693 | 26.30441 | 35137 ft | 538 kts | 142° |
| 2026-05-05 11:31 | 32.18041 | 26.36262 | 35138 ft | 538 kts | 142° |
| 2026-05-05 11:32 | 32.12401 | 26.42059 | 35136 ft | 538 kts | 142° |
| 2026-05-05 11:32 | 32.06776 | 26.47820 | 35136 ft | 537 kts | 142° |
| 2026-05-05 11:33 | 32.01104 | 26.53604 | 35134 ft | 537 kts | 142° |
| 2026-05-05 11:33 | 31.95463 | 26.59365 | 35138 ft | 537 kts | 142° |
| 2026-05-05 11:34 | 31.89815 | 26.65133 | 35139 ft | 537 kts | 142° |
| 2026-05-05 11:34 | 31.84171 | 26.70886 | 35139 ft | 537 kts | 142° |
| 2026-05-05 11:35 | 31.78639 | 26.76516 | 35137 ft | 536 kts | 142° |
| 2026-05-05 11:35 | 31.73035 | 26.82210 | 35138 ft | 536 kts | 142° |
| 2026-05-05 11:36 | 31.67385 | 26.87939 | 35138 ft | 536 kts | 143° |
| 2026-05-05 11:36 | 31.61740 | 26.93653 | 35140 ft | 536 kts | 143° |
| 2026-05-05 11:37 | 31.56043 | 26.99165 | 35149 ft | 535 kts | 145° |
| 2026-05-05 11:37 | 31.50230 | 27.04601 | 35159 ft | 534 kts | 145° |
| 2026-05-05 11:38 | 31.44418 | 27.10030 | 35168 ft | 534 kts | 145° |
| 2026-05-05 11:38 | 31.38735 | 27.15356 | 35183 ft | 533 kts | 145° |
| 2026-05-05 11:39 | 31.32944 | 27.20785 | 35182 ft | 533 kts | 145° |
| 2026-05-05 11:39 | 31.27163 | 27.26193 | 35180 ft | 532 kts | 146° |
| 2026-05-05 11:40 | 31.21379 | 27.31595 | 35173 ft | 532 kts | 146° |
| 2026-05-05 11:40 | 31.15600 | 27.36982 | 35163 ft | 529 kts | 146° |
| 2026-05-05 11:41 | 31.09937 | 27.42262 | 35144 ft | 518 kts | 146° |
| 2026-05-05 11:41 | 31.04310 | 27.47489 | 35133 ft | 517 kts | 146° |
| 2026-05-05 11:42 | 30.98688 | 27.52703 | 35130 ft | 516 kts | 146° |
| 2026-05-05 11:42 | 30.93063 | 27.57902 | 35130 ft | 516 kts | 146° |
| 2026-05-05 11:43 | 30.87450 | 27.63074 | 35130 ft | 515 kts | 146° |
| 2026-05-05 11:43 | 30.81834 | 27.68254 | 35125 ft | 515 kts | 146° |
| 2026-05-05 11:44 | 30.76219 | 27.73432 | 35124 ft | 515 kts | 146° |
| 2026-05-05 11:44 | 30.70608 | 27.78600 | 35124 ft | 514 kts | 146° |
| 2026-05-05 11:45 | 30.65003 | 27.83754 | 35123 ft | 514 kts | 146° |
| 2026-05-05 11:45 | 30.59406 | 27.88892 | 35119 ft | 513 kts | 147° |
| 2026-05-05 11:46 | 30.53893 | 27.93945 | 35128 ft | 513 kts | 147° |
| 2026-05-05 11:46 | 30.48296 | 27.99068 | 35130 ft | 512 kts | 147° |
| 2026-05-05 11:47 | 30.42684 | 28.04196 | 35471 ft | 516 kts | 147° |
| 2026-05-05 11:47 | 30.39844 | 28.06788 | 35771 ft | 516 kts | 147° |
| 2026-05-05 11:47 | 30.37262 | 28.09144 | 36049 ft | 516 kts | 147° |
| 2026-05-05 11:47 | 30.34438 | 28.11720 | 36357 ft | 516 kts | 147° |
| 2026-05-05 11:48 | 30.28804 | 28.16843 | 36957 ft | 515 kts | 147° |
| 2026-05-05 11:48 | 30.25982 | 28.19398 | 37078 ft | 515 kts | 147° |
| 2026-05-05 11:48 | 30.23156 | 28.21955 | 37101 ft | 515 kts | 147° |
| 2026-05-05 11:49 | 30.17523 | 28.27059 | 37109 ft | 514 kts | 147° |
| 2026-05-05 11:49 | 30.11890 | 28.32164 | 37105 ft | 514 kts | 147° |
| 2026-05-05 11:50 | 30.07213 | 28.36398 | 37104 ft | 514 kts | 147° |
| 2026-05-05 11:50 | 30.01583 | 28.41487 | 37109 ft | 514 kts | 147° |
| 2026-05-05 11:51 | 29.95954 | 28.46568 | 37105 ft | 513 kts | 148° |
| 2026-05-05 11:51 | 29.90333 | 28.51634 | 37106 ft | 513 kts | 148° |
| 2026-05-05 11:52 | 29.84707 | 28.56697 | 37106 ft | 513 kts | 148° |
| 2026-05-05 11:52 | 29.79115 | 28.61722 | 37105 ft | 513 kts | 148° |
| 2026-05-05 11:53 | 29.73535 | 28.66728 | 37107 ft | 512 kts | 148° |
| 2026-05-05 11:53 | 29.67912 | 28.71767 | 37101 ft | 512 kts | 148° |
| 2026-05-05 11:54 | 29.62393 | 28.76973 | 37099 ft | 517 kts | 139° |
| 2026-05-05 11:54 | 29.57759 | 28.83362 | 37103 ft | 524 kts | 130° |
| 2026-05-05 11:55 | 29.53466 | 28.90129 | 37104 ft | 524 kts | 130° |
| 2026-05-05 11:55 | 29.49116 | 28.96844 | 37102 ft | 523 kts | 131° |
| 2026-05-05 11:56 | 29.44693 | 29.03481 | 37099 ft | 523 kts | 132° |
| 2026-05-05 11:56 | 29.39835 | 29.09493 | 37091 ft | 513 kts | 146° |
| 2026-05-05 11:57 | 29.34193 | 29.14444 | 37085 ft | 509 kts | 150° |
| 2026-05-05 11:57 | 29.28470 | 29.19202 | 37092 ft | 509 kts | 149° |
| 2026-05-05 11:58 | 29.22791 | 29.24060 | 37099 ft | 509 kts | 149° |
| 2026-05-05 11:58 | 29.17150 | 29.28968 | 37095 ft | 509 kts | 149° |
| 2026-05-05 11:59 | 29.11503 | 29.33862 | 37093 ft | 509 kts | 149° |
| 2026-05-05 11:59 | 29.05808 | 29.38653 | 37093 ft | 508 kts | 150° |
| 2026-05-05 12:00 | 29.00094 | 29.43414 | 37089 ft | 508 kts | 150° |
| 2026-05-05 12:00 | 28.94377 | 29.48182 | 37091 ft | 508 kts | 150° |
| 2026-05-05 12:01 | 28.88733 | 29.52891 | 37093 ft | 508 kts | 150° |
| 2026-05-05 12:01 | 28.82972 | 29.57691 | 37089 ft | 508 kts | 150° |
| 2026-05-05 12:02 | 28.77261 | 29.62444 | 37082 ft | 508 kts | 150° |
| 2026-05-05 12:02 | 28.71558 | 29.67183 | 37084 ft | 508 kts | 150° |
| 2026-05-05 12:03 | 28.65852 | 29.71918 | 37078 ft | 508 kts | 150° |
| 2026-05-05 12:03 | 28.60142 | 29.76649 | 37082 ft | 508 kts | 150° |
| 2026-05-05 12:04 | 28.54446 | 29.81363 | 37090 ft | 508 kts | 150° |
| 2026-05-05 12:04 | 28.48725 | 29.86091 | 37082 ft | 507 kts | 150° |
| 2026-05-05 12:05 | 28.43044 | 29.90770 | 37081 ft | 507 kts | 150° |
| 2026-05-05 12:05 | 28.37339 | 29.95454 | 37075 ft | 507 kts | 150° |
| 2026-05-05 12:06 | 28.31621 | 30.00154 | 37079 ft | 507 kts | 150° |
| 2026-05-05 12:06 | 28.25919 | 30.04841 | 37075 ft | 506 kts | 150° |
| 2026-05-05 12:07 | 28.20212 | 30.09526 | 37076 ft | 506 kts | 150° |
| 2026-05-05 12:07 | 28.14548 | 30.14168 | 37076 ft | 506 kts | 150° |
| 2026-05-05 12:08 | 28.08809 | 30.18866 | 37082 ft | 506 kts | 150° |
| 2026-05-05 12:08 | 28.03148 | 30.23494 | 37078 ft | 505 kts | 150° |
| 2026-05-05 12:09 | 27.97451 | 30.28145 | 37080 ft | 505 kts | 150° |
| 2026-05-05 12:09 | 27.91752 | 30.32791 | 37079 ft | 505 kts | 150° |
| 2026-05-05 12:10 | 27.86057 | 30.37427 | 37079 ft | 504 kts | 150° |
| 2026-05-05 12:10 | 27.80459 | 30.41980 | 37078 ft | 504 kts | 150° |
| 2026-05-05 12:11 | 27.74763 | 30.46595 | 37081 ft | 504 kts | 151° |
| 2026-05-05 12:11 | 27.69084 | 30.51184 | 37078 ft | 503 kts | 151° |
| 2026-05-05 12:12 | 27.63398 | 30.55785 | 37075 ft | 503 kts | 151° |
| 2026-05-05 12:12 | 27.57717 | 30.60380 | 37075 ft | 503 kts | 151° |
| 2026-05-05 12:13 | 27.52055 | 30.64954 | 37076 ft | 502 kts | 151° |
| 2026-05-05 12:13 | 27.46353 | 30.69554 | 37077 ft | 502 kts | 151° |
| 2026-05-05 12:14 | 27.40678 | 30.74126 | 37075 ft | 502 kts | 151° |
| 2026-05-05 12:14 | 27.35009 | 30.78688 | 37072 ft | 501 kts | 151° |
| 2026-05-05 12:15 | 27.29330 | 30.83251 | 37091 ft | 501 kts | 151° |
| 2026-05-05 12:15 | 27.23734 | 30.87743 | 37113 ft | 500 kts | 151° |
| 2026-05-05 12:16 | 27.18033 | 30.92313 | 37133 ft | 500 kts | 151° |
| 2026-05-05 12:16 | 27.12369 | 30.96847 | 37151 ft | 500 kts | 151° |
| 2026-05-05 12:17 | 27.06709 | 31.01361 | 37151 ft | 499 kts | 151° |
| 2026-05-05 12:17 | 27.01061 | 31.05902 | 37150 ft | 502 kts | 147° |
| 2026-05-05 12:18 | 26.96138 | 31.11574 | 37141 ft | 513 kts | 134° |
| 2026-05-05 12:18 | 26.91785 | 31.17886 | 37114 ft | 515 kts | 133° |
| 2026-05-05 12:19 | 26.87657 | 31.23878 | 37101 ft | 514 kts | 134° |
| 2026-05-05 12:19 | 26.83201 | 31.30146 | 37070 ft | 512 kts | 134° |
| 2026-05-05 12:20 | 26.78719 | 31.36357 | 37053 ft | 512 kts | 135° |
| 2026-05-05 12:20 | 26.74238 | 31.42554 | 37049 ft | 512 kts | 135° |
| 2026-05-05 12:21 | 26.69756 | 31.48751 | 37041 ft | 512 kts | 135° |
| 2026-05-05 12:21 | 26.65278 | 31.54940 | 37035 ft | 512 kts | 135° |
| 2026-05-05 12:22 | 26.60792 | 31.61132 | 37030 ft | 512 kts | 135° |
| 2026-05-05 12:22 | 26.56338 | 31.67270 | 37021 ft | 512 kts | 135° |
| 2026-05-05 12:23 | 26.51852 | 31.73443 | 37021 ft | 512 kts | 135° |
| 2026-05-05 12:23 | 26.47426 | 31.79523 | 37019 ft | 512 kts | 135° |
| 2026-05-05 12:24 | 26.42966 | 31.85616 | 37015 ft | 512 kts | 135° |
| 2026-05-05 12:24 | 26.38467 | 31.91766 | 37020 ft | 512 kts | 135° |
| 2026-05-05 12:25 | 26.34083 | 31.97763 | 37007 ft | 511 kts | 135° |
| 2026-05-05 12:25 | 26.29698 | 32.03755 | 37009 ft | 511 kts | 135° |
| 2026-05-05 12:26 | 26.25204 | 32.09892 | 37008 ft | 511 kts | 135° |
| 2026-05-05 12:26 | 26.20712 | 32.16017 | 37005 ft | 511 kts | 135° |
| 2026-05-05 12:27 | 26.16218 | 32.22136 | 36998 ft | 510 kts | 135° |
| 2026-05-05 12:27 | 26.11720 | 32.28250 | 36999 ft | 510 kts | 136° |
| 2026-05-05 12:28 | 26.07223 | 32.34356 | 36992 ft | 510 kts | 136° |
| 2026-05-05 12:28 | 26.02767 | 32.40399 | 36994 ft | 510 kts | 136° |
| 2026-05-05 12:29 | 25.98272 | 32.46486 | 36988 ft | 509 kts | 136° |
| 2026-05-05 12:29 | 25.93774 | 32.52560 | 36981 ft | 509 kts | 136° |
| 2026-05-05 12:30 | 25.89261 | 32.58625 | 36975 ft | 509 kts | 136° |
| 2026-05-05 12:30 | 25.84816 | 32.64608 | 36992 ft | 509 kts | 136° |
| 2026-05-05 12:31 | 25.80287 | 32.70707 | 36990 ft | 509 kts | 136° |
| 2026-05-05 12:31 | 25.75773 | 32.76780 | 36989 ft | 509 kts | 136° |
| 2026-05-05 12:32 | 25.71304 | 32.82866 | 36984 ft | 511 kts | 134° |
| 2026-05-05 12:32 | 25.67233 | 32.89365 | 36986 ft | 515 kts | 129° |
| 2026-05-05 12:33 | 25.63348 | 32.96038 | 36982 ft | 515 kts | 129° |
| 2026-05-05 12:33 | 25.59444 | 33.02706 | 36976 ft | 515 kts | 129° |
| 2026-05-05 12:34 | 25.55514 | 33.09329 | 36971 ft | 514 kts | 130° |
| 2026-05-05 12:34 | 25.51572 | 33.15935 | 36974 ft | 514 kts | 130° |
| 2026-05-05 12:35 | 25.47668 | 33.22469 | 36973 ft | 514 kts | 130° |
| 2026-05-05 12:35 | 25.43673 | 33.29151 | 36972 ft | 514 kts | 130° |
| 2026-05-05 12:36 | 25.39754 | 33.35697 | 36968 ft | 514 kts | 130° |
| 2026-05-05 12:36 | 25.35959 | 33.42027 | 36968 ft | 514 kts | 130° |
| 2026-05-05 12:37 | 25.32004 | 33.48614 | 36966 ft | 514 kts | 130° |
| 2026-05-05 12:37 | 25.28027 | 33.55179 | 36965 ft | 514 kts | 130° |
| 2026-05-05 12:38 | 25.24720 | 33.60630 | 36967 ft | 514 kts | 130° |
| 2026-05-05 12:38 | 25.20742 | 33.67191 | 36966 ft | 514 kts | 130° |
| 2026-05-05 12:39 | 25.16767 | 33.73745 | 36958 ft | 514 kts | 131° |
| 2026-05-05 12:39 | 25.12783 | 33.80306 | 36956 ft | 514 kts | 131° |
| 2026-05-05 12:40 | 25.08809 | 33.86841 | 36953 ft | 514 kts | 131° |
| 2026-05-05 12:40 | 25.04810 | 33.93408 | 36951 ft | 514 kts | 131° |
| 2026-05-05 12:41 | 25.00824 | 33.99945 | 36945 ft | 514 kts | 131° |
| 2026-05-05 12:41 | 24.96829 | 34.06488 | 36952 ft | 514 kts | 131° |
| 2026-05-05 12:42 | 24.92834 | 34.13020 | 36958 ft | 514 kts | 131° |
| 2026-05-05 12:42 | 24.88848 | 34.19530 | 36959 ft | 514 kts | 131° |
| 2026-05-05 12:43 | 24.84824 | 34.26086 | 36944 ft | 514 kts | 131° |
| 2026-05-05 12:43 | 24.80809 | 34.32594 | 36942 ft | 514 kts | 131° |
| 2026-05-05 12:44 | 24.76796 | 34.39106 | 36938 ft | 514 kts | 131° |
| 2026-05-05 12:44 | 24.72781 | 34.45626 | 36941 ft | 514 kts | 131° |
| 2026-05-05 12:45 | 24.68767 | 34.52139 | 36940 ft | 514 kts | 131° |
| 2026-05-05 12:45 | 24.64753 | 34.58641 | 36941 ft | 514 kts | 132° |
| 2026-05-05 12:46 | 24.60728 | 34.65152 | 36941 ft | 514 kts | 132° |
| 2026-05-05 12:46 | 24.56711 | 34.71643 | 36945 ft | 514 kts | 132° |
| 2026-05-05 12:47 | 24.52725 | 34.78071 | 36944 ft | 514 kts | 132° |
| 2026-05-05 12:47 | 24.48679 | 34.84593 | 36942 ft | 514 kts | 132° |
| 2026-05-05 12:48 | 24.44647 | 34.91078 | 36977 ft | 514 kts | 132° |
| 2026-05-05 12:48 | 24.40631 | 34.97536 | 36945 ft | 513 kts | 133° |
| 2026-05-05 12:49 | 24.36613 | 35.03966 | 36946 ft | 514 kts | 133° |
| 2026-05-05 12:49 | 24.32545 | 35.10457 | 36947 ft | 514 kts | 133° |
| 2026-05-05 12:50 | 24.28499 | 35.16925 | 36948 ft | 514 kts | 133° |
| 2026-05-05 12:50 | 24.24456 | 35.23387 | 36942 ft | 515 kts | 133° |
| 2026-05-05 12:51 | 24.20403 | 35.29859 | 36948 ft | 515 kts | 133° |
| 2026-05-05 12:51 | 24.16338 | 35.36337 | 36935 ft | 516 kts | 133° |
| 2026-05-05 12:52 | 24.12267 | 35.42819 | 36933 ft | 517 kts | 133° |
| 2026-05-05 12:52 | 24.08181 | 35.49311 | 36930 ft | 518 kts | 133° |
| 2026-05-05 12:53 | 24.04094 | 35.55803 | 36938 ft | 518 kts | 133° |
| 2026-05-05 12:53 | 24.00010 | 35.62285 | 36929 ft | 518 kts | 133° |
| 2026-05-05 12:54 | 23.93870 | 35.71978 | 36926 ft | 517 kts | 133° |
| 2026-05-05 12:55 | 23.89764 | 35.78448 | 36921 ft | 517 kts | 133° |
| 2026-05-05 12:55 | 23.85667 | 35.84904 | 36918 ft | 517 kts | 133° |
| 2026-05-05 12:56 | 23.81574 | 35.91352 | 36920 ft | 516 kts | 133° |
| 2026-05-05 12:56 | 23.77479 | 35.97795 | 36920 ft | 516 kts | 133° |
| 2026-05-05 12:57 | 23.73414 | 36.04181 | 36920 ft | 516 kts | 133° |
| 2026-05-05 12:57 | 23.69324 | 36.10599 | 36915 ft | 515 kts | 133° |
| 2026-05-05 12:58 | 23.65227 | 36.17019 | 36918 ft | 515 kts | 133° |
| 2026-05-05 12:58 | 23.61132 | 36.23428 | 36918 ft | 515 kts | 133° |
| 2026-05-05 12:59 | 23.57035 | 36.29832 | 36917 ft | 515 kts | 133° |
| 2026-05-05 12:59 | 23.52939 | 36.36227 | 36920 ft | 515 kts | 133° |
| 2026-05-05 13:00 | 23.46772 | 36.45815 | 36913 ft | 515 kts | 133° |
| 2026-05-05 13:01 | 23.38552 | 36.58573 | 36910 ft | 515 kts | 133° |
| 2026-05-05 13:01 | 23.34441 | 36.64955 | 36913 ft | 515 kts | 133° |
| 2026-05-05 13:02 | 23.30330 | 36.71329 | 36908 ft | 515 kts | 133° |
| 2026-05-05 13:02 | 23.26216 | 36.77700 | 36902 ft | 514 kts | 133° |
| 2026-05-05 13:03 | 23.22101 | 36.84064 | 36896 ft | 514 kts | 134° |
| 2026-05-05 13:03 | 23.17980 | 36.90429 | 36900 ft | 514 kts | 134° |
| 2026-05-05 13:04 | 23.13861 | 36.96782 | 36901 ft | 514 kts | 134° |
| 2026-05-05 13:04 | 23.09744 | 37.03126 | 36894 ft | 514 kts | 134° |
| 2026-05-05 13:05 | 23.05704 | 37.09343 | 36897 ft | 513 kts | 134° |
| 2026-05-05 13:05 | 23.01581 | 37.15667 | 36889 ft | 513 kts | 134° |
| 2026-05-05 13:06 | 22.97443 | 37.21968 | 36881 ft | 513 kts | 134° |
| 2026-05-05 13:06 | 22.93306 | 37.28270 | 36890 ft | 513 kts | 134° |
| 2026-05-05 13:07 | 22.89177 | 37.34563 | 36888 ft | 512 kts | 134° |
| 2026-05-05 13:07 | 22.85044 | 37.40858 | 36887 ft | 512 kts | 134° |
| 2026-05-05 13:08 | 22.80985 | 37.47033 | 36886 ft | 512 kts | 134° |
| 2026-05-05 13:08 | 22.76853 | 37.53310 | 36883 ft | 512 kts | 134° |
| 2026-05-05 13:09 | 22.72718 | 37.59585 | 36882 ft | 511 kts | 134° |
| 2026-05-05 13:09 | 22.68644 | 37.65771 | 36879 ft | 511 kts | 133° |
| 2026-05-05 13:10 | 22.64551 | 37.72008 | 36874 ft | 511 kts | 133° |
| 2026-05-05 13:10 | 22.60411 | 37.78323 | 36876 ft | 511 kts | 133° |
| 2026-05-05 13:11 | 22.56327 | 37.84546 | 36876 ft | 510 kts | 133° |
| 2026-05-05 13:11 | 22.52219 | 37.90797 | 36874 ft | 510 kts | 133° |
| 2026-05-05 13:12 | 22.48109 | 37.97042 | 36869 ft | 510 kts | 133° |
| 2026-05-05 13:12 | 22.43993 | 38.03290 | 36874 ft | 510 kts | 133° |
| 2026-05-05 13:13 | 22.39893 | 38.09506 | 36866 ft | 509 kts | 133° |
| 2026-05-05 13:13 | 22.35770 | 38.15751 | 36875 ft | 509 kts | 133° |
| 2026-05-05 13:14 | 22.31655 | 38.21975 | 36868 ft | 509 kts | 133° |
| 2026-05-05 13:14 | 22.27531 | 38.28190 | 36863 ft | 509 kts | 133° |
| 2026-05-05 13:15 | 22.23408 | 38.34393 | 36861 ft | 509 kts | 133° |
| 2026-05-05 13:15 | 22.18950 | 38.40094 | 36664 ft | 473 kts | 149° |
| 2026-05-05 13:16 | 22.16376 | 38.42167 | 36361 ft | 456 kts | 155° |
| 2026-05-05 13:16 | 22.13706 | 38.43992 | 35866 ft | 454 kts | 157° |
| 2026-05-05 13:16 | 22.11004 | 38.45768 | 35280 ft | 454 kts | 157° |
| 2026-05-05 13:16 | 22.08320 | 38.47567 | 34705 ft | 456 kts | 156° |
| 2026-05-05 13:17 | 22.05633 | 38.49426 | 34135 ft | 459 kts | 155° |
| 2026-05-05 13:17 | 22.02977 | 38.51317 | 33556 ft | 457 kts | 154° |
| 2026-05-05 13:17 | 22.00379 | 38.53198 | 33157 ft | 442 kts | 155° |
| 2026-05-05 13:17 | 21.97760 | 38.54846 | 32534 ft | 428 kts | 163° |
| 2026-05-05 13:18 | 21.95038 | 38.55909 | 31916 ft | 407 kts | 176° |
| 2026-05-05 13:18 | 21.92297 | 38.56256 | 31317 ft | 387 kts | 188° |
| 2026-05-05 13:18 | 21.89684 | 38.55942 | 30763 ft | 372 kts | 199° |
| 2026-05-05 13:18 | 21.87208 | 38.55222 | 30232 ft | 366 kts | 203° |
| 2026-05-05 13:19 | 21.84783 | 38.54500 | 29669 ft | 368 kts | 197° |
| 2026-05-05 13:19 | 21.82223 | 38.54096 | 28989 ft | 370 kts | 192° |
| 2026-05-05 13:19 | 21.79670 | 38.53875 | 28375 ft | 368 kts | 190° |
| 2026-05-05 13:19 | 21.77151 | 38.53723 | 27790 ft | 366 kts | 189° |
| 2026-05-05 13:20 | 21.74570 | 38.53630 | 27185 ft | 365 kts | 185° |
| 2026-05-05 13:20 | 21.72109 | 38.53890 | 26566 ft | 371 kts | 174° |
| 2026-05-05 13:20 | 21.69584 | 38.54849 | 25891 ft | 380 kts | 158° |
| 2026-05-05 13:20 | 21.67447 | 38.56496 | 25233 ft | 390 kts | 141° |
| 2026-05-05 13:21 | 21.65749 | 38.58855 | 24546 ft | 400 kts | 123° |
| 2026-05-05 13:21 | 21.64753 | 38.61624 | 23870 ft | 406 kts | 105° |
| 2026-05-05 13:21 | 21.64534 | 38.64667 | 23112 ft | 402 kts | 87° |
| 2026-05-05 13:21 | 21.65121 | 38.67565 | 22340 ft | 396 kts | 70° |
| 2026-05-05 13:22 | 21.66418 | 38.70136 | 21645 ft | 387 kts | 52° |
| 2026-05-05 13:22 | 21.68204 | 38.72208 | 20999 ft | 380 kts | 41° |
| 2026-05-05 13:22 | 21.69553 | 38.73460 | 20560 ft | 378 kts | 38° |
| 2026-05-05 13:22 | 21.71591 | 38.75214 | 19909 ft | 374 kts | 37° |
| 2026-05-05 13:23 | 21.74215 | 38.77583 | 19056 ft | 370 kts | 45° |
| 2026-05-05 13:23 | 21.75796 | 38.79733 | 18408 ft | 364 kts | 61° |
| 2026-05-05 13:23 | 21.76754 | 38.82216 | 17707 ft | 357 kts | 79° |
| 2026-05-05 13:23 | 21.77112 | 38.84599 | 17106 ft | 351 kts | 87° |
| 2026-05-05 13:24 | 21.77231 | 38.86354 | 16683 ft | 348 kts | 90° |
| 2026-05-05 13:24 | 21.77327 | 38.88669 | 16197 ft | 345 kts | 90° |
| 2026-05-05 13:24 | 21.77421 | 38.91225 | 15905 ft | 333 kts | 90° |
| 2026-05-05 13:24 | 21.77523 | 38.93571 | 15792 ft | 306 kts | 90° |
| 2026-05-05 13:25 | 21.77631 | 38.95830 | 15615 ft | 294 kts | 90° |
| 2026-05-05 13:25 | 21.77656 | 38.97978 | 15215 ft | 290 kts | 98° |
| 2026-05-05 13:25 | 21.77378 | 39.00135 | 14619 ft | 286 kts | 104° |
| 2026-05-05 13:25 | 21.77004 | 39.02192 | 14050 ft | 281 kts | 106° |
| 2026-05-05 13:26 | 21.76607 | 39.04238 | 13534 ft | 280 kts | 107° |
| 2026-05-05 13:26 | 21.76208 | 39.06279 | 12925 ft | 278 kts | 105° |
| 2026-05-05 13:26 | 21.75815 | 39.08300 | 12330 ft | 274 kts | 105° |
| 2026-05-05 13:26 | 21.75432 | 39.10304 | 11761 ft | 272 kts | 104° |
| 2026-05-05 13:27 | 21.75054 | 39.12292 | 11209 ft | 270 kts | 104° |
| 2026-05-05 13:27 | 21.74679 | 39.14256 | 10663 ft | 266 kts | 104° |
| 2026-05-05 13:27 | 21.74307 | 39.16194 | 10138 ft | 262 kts | 104° |
| 2026-05-05 13:27 | 21.73948 | 39.18080 | 9625 ft | 252 kts | 103° |
| 2026-05-05 13:28 | 21.73603 | 39.19889 | 9084 ft | 243 kts | 103° |
| 2026-05-05 13:28 | 21.73268 | 39.21645 | 8579 ft | 235 kts | 103° |
| 2026-05-05 13:28 | 21.72925 | 39.23326 | 8168 ft | 224 kts | 107° |
| 2026-05-05 13:28 | 21.72281 | 39.24797 | 7742 ft | 215 kts | 129° |
| 2026-05-05 13:29 | 21.71165 | 39.25797 | 7349 ft | 207 kts | 155° |
| 2026-05-05 13:29 | 21.69861 | 39.26408 | 7036 ft | 209 kts | 160° |
| 2026-05-05 13:29 | 21.68502 | 39.26980 | 6668 ft | 211 kts | 161° |
| 2026-05-05 13:29 | 21.67139 | 39.27542 | 6261 ft | 209 kts | 160° |
| 2026-05-05 13:30 | 21.65785 | 39.28098 | 5888 ft | 208 kts | 161° |
| 2026-05-05 13:30 | 21.64434 | 39.28644 | 5477 ft | 206 kts | 160° |
| 2026-05-05 13:30 | 21.63093 | 39.29183 | 5146 ft | 206 kts | 161° |
| 2026-05-05 13:30 | 21.61748 | 39.29718 | 4812 ft | 206 kts | 161° |
| 2026-05-05 13:31 | 21.60515 | 39.30205 | 4519 ft | 207 kts | 161° |
| 2026-05-05 13:31 | 21.59159 | 39.30738 | 4164 ft | 206 kts | 160° |
| 2026-05-05 13:31 | 21.57816 | 39.31268 | 3825 ft | 207 kts | 160° |
| 2026-05-05 13:31 | 21.56453 | 39.31803 | 3505 ft | 209 kts | 159° |
| 2026-05-05 13:32 | 21.55083 | 39.32344 | 3161 ft | 210 kts | 159° |
| 2026-05-05 13:32 | 21.53704 | 39.32885 | 3065 ft | 213 kts | 160° |
| 2026-05-05 13:32 | 21.52307 | 39.33434 | 3012 ft | 213 kts | 158° |
| 2026-05-05 13:32 | 21.50920 | 39.33976 | 3010 ft | 214 kts | 158° |
| 2026-05-05 13:33 | 21.49553 | 39.34514 | 3030 ft | 213 kts | 158° |
| 2026-05-05 13:33 | 21.48157 | 39.35063 | 3013 ft | 212 kts | 158° |
| 2026-05-05 13:33 | 21.46780 | 39.35603 | 3017 ft | 211 kts | 158° |
| 2026-05-05 13:33 | 21.45402 | 39.36142 | 3026 ft | 211 kts | 158° |
| 2026-05-05 13:34 | 21.43969 | 39.36411 | 2960 ft | 210 kts | 189° |
| 2026-05-05 13:34 | 21.42672 | 39.35812 | 3015 ft | 202 kts | 227° |
| 2026-05-05 13:34 | 21.41964 | 39.34573 | 3040 ft | 193 kts | 261° |
| 2026-05-05 13:34 | 21.41692 | 39.33165 | 3067 ft | 194 kts | 262° |
| 2026-05-05 13:35 | 21.41485 | 39.31749 | 2999 ft | 190 kts | 273° |
| 2026-05-05 13:35 | 21.41591 | 39.30362 | 2926 ft | 184 kts | 289° |
| 2026-05-05 13:35 | 21.42019 | 39.29084 | 2848 ft | 181 kts | 302° |
| 2026-05-05 13:35 | 21.42724 | 39.27987 | 2816 ft | 177 kts | 318° |
| 2026-05-05 13:36 | 21.43647 | 39.27149 | 2744 ft | 172 kts | 330° |
| 2026-05-05 13:36 | 21.44695 | 39.26551 | 2693 ft | 170 kts | 341° |
| 2026-05-05 13:36 | 21.45798 | 39.26119 | 2647 ft | 169 kts | 342° |
| 2026-05-05 13:36 | 21.46907 | 39.25697 | 2580 ft | 168 kts | 341° |
| 2026-05-05 13:37 | 21.48009 | 39.25274 | 2416 ft | 168 kts | 342° |
| 2026-05-05 13:37 | 21.49061 | 39.24866 | 2236 ft | 152 kts | 341° |
| 2026-05-05 13:37 | 21.50018 | 39.24497 | 2098 ft | 143 kts | 341° |
| 2026-05-05 13:37 | 21.50951 | 39.24135 | 2133 ft | 143 kts | 341° |
| 2026-05-05 13:38 | 21.51880 | 39.23777 | 2065 ft | 142 kts | 341° |
| 2026-05-05 13:38 | 21.52810 | 39.23415 | 1985 ft | 140 kts | 340° |
| 2026-05-05 13:38 | 21.53723 | 39.23058 | 1934 ft | 140 kts | 340° |
| 2026-05-05 13:38 | 21.54636 | 39.22702 | 1863 ft | 139 kts | 340° |
| 2026-05-05 13:39 | 21.55544 | 39.22348 | 1779 ft | 139 kts | 340° |
| 2026-05-05 13:39 | 21.56441 | 39.22010 | 1719 ft | 135 kts | 342° |
| 2026-05-05 13:39 | 21.57346 | 39.21713 | 1687 ft | 136 kts | 341° |
| 2026-05-05 13:39 | 21.58245 | 39.21366 | 1730 ft | 137 kts | 340° |
| 2026-05-05 13:40 | 21.59141 | 39.21005 | 1578 ft | 138 kts | 339° |
| 2026-05-05 13:40 | 21.60023 | 39.20655 | 1427 ft | 136 kts | 338° |
| 2026-05-05 13:40 | 21.60921 | 39.20299 | 1255 ft | 134 kts | 338° |
| 2026-05-05 13:40 | 21.61778 | 39.19962 | 1054 ft | 132 kts | 336° |
| 2026-05-05 13:41 | 21.62666 | 39.19616 | 893 ft | 136 kts | 339° |
| 2026-05-05 13:41 | 21.63568 | 39.19275 | 704 ft | 140 kts | 339° |
| 2026-05-05 13:41 | 21.64488 | 39.18900 | 536 ft | 147 kts | 339° |
| 2026-05-05 13:41 | 21.65453 | 39.18523 | 329 ft | 148 kts | 340° |
| 2026-05-05 13:42 | 21.66399 | 39.18154 | 168 ft | 142 kts | 338° |
| 2026-05-05 13:42 | 21.67289 | 39.17790 | 61 ft | 125 kts | 338° |
| 2026-05-05 13:42 | 21.67990 | 39.17519 | 56 ft | 90 kts | 341° |
| 2026-05-05 13:42 | 21.68464 | 39.17334 | 46 ft | 55 kts | 339° |
| 2026-05-05 13:43 | 21.68757 | 39.17205 | 51 ft | 36 kts | 327° |
| 2026-05-05 13:43 | 21.68914 | 39.17040 | 48 ft | 25 kts | 310° |
| 2026-05-05 13:43 | 21.69009 | 39.16919 | 51 ft | 12 kts | 314° |
| 2026-05-05 13:43 | 21.69015 | 39.16913 | 51 ft | 0 kts | 314° |
| 2026-05-05 13:44 | 21.69016 | 39.16911 | 51 ft | 2 kts | 314° |
| 2026-05-05 13:44 | 21.69042 | 39.16883 | 51 ft | 8 kts | 318° |
| 2026-05-05 13:45 | 21.69116 | 39.16840 | 51 ft | 16 kts | 338° |
| 2026-05-05 13:45 | 21.69215 | 39.16802 | 50 ft | 11 kts | 336° |
| 2026-05-05 13:45 | 21.69246 | 39.16739 | 50 ft | 6 kts | 259° |
| 2026-05-05 13:45 | 21.69208 | 39.16712 | 50 ft | 8 kts | 188° |
| 2026-05-05 13:46 | 21.69134 | 39.16732 | 50 ft | 14 kts | 156° |
| 2026-05-05 13:46 | 21.69030 | 39.16778 | 51 ft | 18 kts | 162° |
| 2026-05-05 13:46 | 21.68919 | 39.16817 | 51 ft | 12 kts | 160° |
| 2026-05-05 13:46 | 21.68881 | 39.16832 | 52 ft | 5 kts | 160° |
| 2026-05-05 13:47 | 21.68845 | 39.16846 | 52 ft | 6 kts | 160° |
| 2026-05-05 13:47 | 21.68808 | 39.16861 | 50 ft | 6 kts | 160° |
| 2026-05-05 13:47 | 21.68772 | 39.16875 | 49 ft | 5 kts | 160° |
| 2026-05-05 13:47 | 21.68743 | 39.16887 | 47 ft | 4 kts | 159° |
| 2026-05-05 13:48 | 21.68702 | 39.16904 | 48 ft | 9 kts | 159° |
| 2026-05-05 13:48 | 21.68620 | 39.16936 | 49 ft | 15 kts | 159° |
| 2026-05-05 13:48 | 21.68500 | 39.16985 | 51 ft | 21 kts | 159° |
| 2026-05-05 13:48 | 21.68347 | 39.17044 | 48 ft | 26 kts | 160° |
| 2026-05-05 13:49 | 21.68201 | 39.17101 | 51 ft | 20 kts | 159° |
| 2026-05-05 13:49 | 21.68088 | 39.17147 | 52 ft | 12 kts | 160° |
| 2026-05-05 13:49 | 21.68012 | 39.17176 | 53 ft | 11 kts | 160° |
| 2026-05-05 13:49 | 21.67947 | 39.17202 | 54 ft | 9 kts | 160° |
| 2026-05-05 13:50 | 21.67892 | 39.17223 | 54 ft | 8 kts | 160° |
| 2026-05-05 13:50 | 21.67838 | 39.17244 | 52 ft | 10 kts | 160° |
| 2026-05-05 13:50 | 21.67761 | 39.17275 | 54 ft | 14 kts | 160° |
| 2026-05-05 13:50 | 21.67655 | 39.17317 | 52 ft | 18 kts | 160° |
| 2026-05-05 13:51 | 21.67521 | 39.17370 | 53 ft | 23 kts | 159° |
| 2026-05-05 13:51 | 21.67357 | 39.17435 | 56 ft | 27 kts | 160° |
| 2026-05-05 13:51 | 21.67212 | 39.17491 | 53 ft | 20 kts | 160° |
| 2026-05-05 13:51 | 21.67075 | 39.17546 | 54 ft | 17 kts | 159° |
| 2026-05-05 13:52 | 21.66991 | 39.17571 | 54 ft | 8 kts | 181° |
| 2026-05-05 13:52 | 21.66948 | 39.17530 | 55 ft | 10 kts | 247° |
| 2026-05-05 13:52 | 21.66920 | 39.17451 | 56 ft | 14 kts | 250° |
| 2026-05-05 13:52 | 21.66886 | 39.17348 | 53 ft | 6 kts | 250° |
| 2026-05-05 13:53 | 21.66880 | 39.17330 | 52 ft | 6 kts | 250° |
| 2026-05-05 13:53 | 21.66847 | 39.17287 | 51 ft | 7 kts | 202° |
| 2026-05-05 13:53 | 21.66806 | 39.17277 | 55 ft | 3 kts | 211° |
| 2026-05-05 13:53 | 21.66787 | 39.17243 | 51 ft | 8 kts | 249° |
| 2026-05-05 13:54 | 21.66777 | 39.17212 | 52 ft | 3 kts | 252° |
| 2026-05-05 13:54 | 21.66774 | 39.17202 | 51 ft | 0 kts | 251° |